AerodromSadržaj METAR izveštaja
LYBEMETAR LYBE 231030Z VRB02KT CAVOK 13/07 Q1020 NOSIG=
LYBTMETAR LYBT 231030Z VRB02KT CAVOK 13/06 Q1020 NOSIG=
LYKVMETAR LYKV 231000Z VRB02KT CAVOK 10/05 Q1021 NOSIG=
LYNIMETAR LYNI 231030Z VRB02KT CAVOK 11/03 Q1021 NOSIG=
LYVRMETAR LYVR 231030Z 18004KT 150V220 CAVOK 14/04 Q1020 NOSIG=
LYUZMETAR LYUZ 231030Z 23004KT 180V280 CAVOK 10/02 Q1020=
LYPGMETAR LYPG 231030Z VRB01KT 9999 FEW050 SCT080 13/05 Q1022 NOSIG=
LYTVMETAR LYTV 231030Z 30003KT 9999 FEW027 SCT037 13/08 Q1022 NOSIG=

Podaci učitani u: 2017-11-23 10:49:55 UTC

METAR, TAF, AIRMET, GAMET, SIGMET

Važna napomena: MET infоrmаciје nа оvim web strаnicаmа imајu infоrmаtivni kаrаktеr, nаmenjene su isključivo vаzduhоplоvnim kоrisnicima, nе smејu sе kоristiti zа bilо kоје kоmеrciјаlnе svrhе, i nе zаmеnjuјu dоkumеntаciјu zа lеt.